Time;durP1;ratioP1;P1;durP2;ratioP2;P2;SDS_P1;SDS_P2;PMS_P1;PMS_P2;Temp;Humidity;BMP_temperature;BMP_pressure;BME280_temperature;BME280_humidity;BME280_pressure;Samples;Min_cycle;Max_cycle;Signal;HPM_P1;HPM_P2
2023/01/28 00:01:47;;;;;;;;;33.00;28.25;;;;;3.46;74.44;99209.28;5071820;28;8853;-81
2023/01/28 00:04:18;;;;;;;;;41.00;37.50;;;;;3.62;74.09;99202.78;5111286;27;8920;-84
2023/01/28 00:06:47;;;;;;;;;52.25;43.25;;;;;3.61;73.68;99199.34;5131739;27;8817;-80
2023/01/28 00:09:15;;;;;;;;;41.00;39.50;;;;;3.29;75.30;99203.78;5132220;27;9588;-79
2023/01/28 00:11:44;;;;;;;;;44.75;42.25;;;;;4.08;73.07;99198.56;5131874;27;8837;-78
2023/01/28 00:14:13;;;;;;;;;47.75;43.50;;;;;3.43;73.86;99198.91;5113251;27;8829;-82
2023/01/28 00:16:42;;;;;;;;;46.75;44.00;;;;;3.78;73.08;99196.22;5096290;27;8856;-81
2023/01/28 00:19:11;;;;;;;;;43.00;34.75;;;;;3.26;74.80;99207.13;5117194;27;8893;-80
2023/01/28 00:21:41;;;;;;;;;51.25;42.50;;;;;3.57;74.07;99205.22;5152574;27;8912;-78
2023/01/28 00:24:10;;;;;;;;;39.50;34.75;;;;;3.34;74.63;99202.16;5152217;27;8851;-78
2023/01/28 00:26:39;;;;;;;;;44.75;41.50;;;;;3.77;73.12;99207.38;5108352;28;8833;-77
2023/01/28 00:29:08;;;;;;;;;43.50;39.00;;;;;3.92;71.68;99204.25;5091249;28;8957;-79
2023/01/28 00:31:37;;;;;;;;;44.50;37.75;;;;;3.59;72.97;99197.53;5091262;28;8833;-78
2023/01/28 00:34:05;;;;;;;;;44.75;35.75;;;;;3.78;72.47;99207.44;5091258;28;8861;-80
2023/01/28 00:36:38;;;;;;;;;49.25;43.25;;;;;3.83;72.27;99200.63;5074197;28;8825;-80
2023/01/28 00:39:13;;;;;;;;;46.75;34.00;;;;;3.81;72.43;99206.63;5091067;28;8818;-80
2023/01/28 00:41:43;;;;;;;;;46.25;39.00;;;;;3.99;71.65;99203.53;5090637;28;8841;-79
2023/01/28 00:44:11;;;;;;;;;46.75;38.25;;;;;3.93;71.46;99206.00;5090837;28;8837;-78
2023/01/28 00:46:40;;;;;;;;;52.25;41.75;;;;;3.45;73.37;99223.88;5107937;28;8841;-79
2023/01/28 00:49:09;;;;;;;;;30.75;26.00;;;;;3.93;72.26;99219.75;5090780;28;8856;-79
2023/01/28 00:51:39;;;;;;;;;46.50;43.00;;;;;4.03;71.40;99211.38;5107715;28;9661;-79
2023/01/28 00:54:12;;;;;;;;;39.00;31.50;;;;;3.63;72.69;99207.06;5090632;28;8837;-82
2023/01/28 00:56:40;;;;;;;;;46.50;42.00;;;;;3.60;72.77;99217.34;5108392;27;8912;-80
2023/01/28 00:59:09;;;;;;;;;33.50;33.50;;;;;3.55;72.67;99219.78;5081110;27;8874;-82
2023/01/28 01:01:38;;;;;;;;;45.75;38.00;;;;;3.44;73.79;99222.16;5133476;27;8838;-78
2023/01/28 01:04:07;;;;;;;;;43.25;41.00;;;;;3.37;74.20;99220.25;5109823;27;8853;-81
2023/01/28 01:06:38;;;;;;;;;44.25;39.75;;;;;3.65;72.61;99226.91;5112959;27;8833;-79
2023/01/28 01:09:11;;;;;;;;;40.50;35.75;;;;;4.07;71.59;99225.22;5114285;27;8834;-81
2023/01/28 01:11:41;;;;;;;;;54.25;44.00;;;;;4.17;71.25;99221.09;5070257;28;8849;-81
2023/01/28 01:14:11;;;;;;;;;38.50;31.25;;;;;4.05;70.98;99220.00;5046582;28;8867;-80
2023/01/28 01:16:41;;;;;;;;;47.25;38.50;;;;;3.76;72.05;99223.69;4982471;28;8886;-81
2023/01/28 01:19:09;;;;;;;;;50.00;43.50;;;;;3.67;72.30;99226.94;5047903;28;8843;-79
2023/01/28 01:21:38;;;;;;;;;37.00;32.00;;;;;3.58;73.14;99224.16;5047919;28;8870;-79
2023/01/28 01:24:07;;;;;;;;;40.00;34.00;;;;;3.35;73.44;99227.09;5061303;28;8830;-80
2023/01/28 01:26:37;;;;;;;;;51.50;42.50;;;;;3.22;74.19;99233.66;5066787;28;8861;-79
2023/01/28 01:29:08;;;;;;;;;46.75;38.50;;;;;3.19;74.54;99237.88;5049752;28;8865;-78
2023/01/28 01:31:37;;;;;;;;;41.25;37.75;;;;;3.33;74.71;99228.78;5066847;28;8837;-78
2023/01/28 01:34:06;;;;;;;;;38.50;37.00;;;;;3.78;73.27;99227.16;5066412;28;8979;-78
2023/01/28 01:36:35;;;;;;;;;39.00;38.50;;;;;3.88;72.36;99227.41;5066045;28;9022;-80
2023/01/28 01:39:04;;;;;;;;;41.50;39.50;;;;;4.22;71.19;99229.81;5049436;28;9077;-81
2023/01/28 01:41:33;;;;;;;;;37.25;30.00;;;;;4.63;69.21;99225.44;5016947;28;8945;-80
2023/01/28 01:44:06;;;;;;;;;57.75;44.75;;;;;3.99;70.90;99221.59;5066714;28;8871;-79
2023/01/28 01:46:40;;;;;;;;;50.00;40.25;;;;;4.01;70.78;99225.09;5094543;27;9082;-79
2023/01/28 01:49:19;;;;;;;;;38.75;33.25;;;;;4.43;70.10;99217.31;5111440;27;8872;-79
2023/01/28 01:51:52;;;;;;;;;53.25;45.50;;;;;4.19;70.77;99222.84;5111520;27;8833;-77
2023/01/28 01:54:26;;;;;;;;;42.00;34.50;;;;;3.66;71.82;99226.06;5129369;27;8868;-77
2023/01/28 01:56:59;;;;;;;;;49.75;41.00;;;;;3.66;72.58;99228.63;5078506;27;8838;-80
2023/01/28 01:59:33;;;;;;;;;43.50;37.75;;;;;4.34;70.80;99226.59;5093073;27;8837;-80
2023/01/28 02:02:05;;;;;;;;;42.75;38.25;;;;;4.25;70.25;99232.44;5111200;27;8867;-79
2023/01/28 02:04:37;;;;;;;;;47.75;40.50;;;;;4.47;69.66;99218.22;5096658;27;8845;-79
2023/01/28 02:07:11;;;;;;;;;54.50;45.25;;;;;3.85;71.39;99229.91;5129633;27;8825;-81
2023/01/28 02:09:41;;;;;;;;;39.00;26.00;;;;;3.78;72.58;99230.63;5093738;27;8857;-80
2023/01/28 02:12:17;;;;;;;;;45.00;40.75;;;;;3.87;71.75;99237.69;5111098;27;8845;-78
2023/01/28 02:14:54;;;;;;;;;33.25;24.50;;;;;3.85;71.79;99239.34;5110768;27;8849;-79
2023/01/28 02:17:24;;;;;;;;;52.50;43.50;;;;;4.15;70.95;99239.13;5111056;27;8837;-78
2023/01/28 02:19:57;;;;;;;;;55.50;42.75;;;;;4.45;70.29;99238.84;5110817;27;8904;-80
2023/01/28 02:22:59;;;;;;;;;45.50;41.25;;;;;4.85;69.07;99243.88;5128894;27;8874;-77
2023/01/28 02:25:41;;;;;;;;;43.25;40.75;;;;;4.85;68.94;99233.53;5048592;28;8859;-79
2023/01/28 02:28:23;;;;;;;;;51.00;42.00;;;;;4.97;68.31;99235.47;5048539;28;8851;-79
2023/01/28 02:30:58;;;;;;;;;53.75;42.75;;;;;4.84;68.05;99232.69;5048673;28;8871;-80
2023/01/28 02:33:34;;;;;;;;;49.50;43.50;;;;;4.24;69.61;99234.16;5032114;28;8874;-80
2023/01/28 02:36:15;;;;;;;;;43.75;38.25;;;;;4.49;70.14;99234.63;5032349;28;8867;-79
2023/01/28 02:38:49;;;;;;;;;45.00;35.50;;;;;4.61;69.30;99245.19;4999929;28;8878;-82
2023/01/28 02:41:25;;;;;;;;;50.25;46.00;;;;;4.57;69.13;99245.94;5059074;28;8941;-78
2023/01/28 02:43:56;;;;;;;;;38.00;36.00;;;;;4.78;68.54;99245.50;5065590;28;8844;-79
2023/01/28 02:49:29;;;;;;;;;39.25;35.50;;;;;5.00;67.79;99240.69;5032324;28;8852;-82
2023/01/28 02:52:12;;;;;;;;;40.50;39.00;;;;;5.37;66.84;99236.09;5042171;28;8900;-78
2023/01/28 02:54:47;;;;;;;;;40.00;33.50;;;;;4.24;69.78;99233.28;5065755;28;8937;-79
2023/01/28 02:57:34;;;;;;;;;47.25;40.75;;;;;4.29;69.69;99236.81;5065769;28;8836;-78
2023/01/28 03:00:10;;;;;;;;;54.25;43.00;;;;;4.41;69.70;99239.63;5048880;28;8859;-81
2023/01/28 03:02:48;;;;;;;;;35.00;30.00;;;;;4.65;69.38;99244.41;5082764;27;8861;-77
2023/01/28 03:05:23;;;;;;;;;36.50;34.25;;;;;5.05;68.10;99234.75;5059264;27;8899;-80
2023/01/28 03:07:52;;;;;;;;;39.00;34.75;;;;;4.61;68.58;99237.44;5107215;28;8984;-77
2023/01/28 03:10:24;;;;;;;;;30.75;27.50;;;;;4.68;68.80;99238.41;5090481;28;8853;-80
2023/01/28 03:38:41;;;;;;;;;43.25;36.00;;;;;3.74;72.76;99252.00;5068560;28;8850;-80
2023/01/28 03:41:22;;;;;;;;;44.75;36.50;;;;;3.24;75.39;99256.91;5085490;28;8857;-78
2023/01/28 03:43:52;;;;;;;;;40.25;35.00;;;;;3.05;75.79;99256.44;5068524;28;8942;-77
2023/01/28 03:46:21;;;;;;;;;40.50;36.25;;;;;3.28;75.64;99253.56;5051500;28;8940;-79
2023/01/28 03:48:51;;;;;;;;;30.25;22.00;;;;;3.59;73.55;99254.25;5071258;28;8861;-82
2023/01/28 03:51:20;;;;;;;;;46.75;40.00;;;;;3.30;74.22;99250.16;5108403;27;8845;-78
2023/01/28 03:53:48;;;;;;;;;38.25;33.50;;;;;3.46;74.28;99248.84;5093268;28;8852;-79
2023/01/28 03:56:18;;;;;;;;;36.50;32.75;;;;;3.92;72.56;99243.81;5093390;28;8883;-81
2023/01/28 03:58:55;;;;;;;;;41.00;37.50;;;;;3.94;72.77;99244.72;5110022;28;8833;-78
2023/01/28 04:01:24;;;;;;;;;41.50;36.00;;;;;3.68;73.57;99250.16;5111359;28;8861;-77
2023/01/28 04:03:55;;;;;;;;;37.25;32.50;;;;;4.15;71.73;99248.59;5088369;28;8843;-80
2023/01/28 04:06:27;;;;;;;;;40.75;36.00;;;;;4.14;71.62;99237.41;5071483;28;9061;-80
2023/01/28 04:09:26;;;;;;;;;42.25;32.50;;;;;3.79;73.10;99247.84;5047719;28;8847;-81
2023/01/28 04:12:13;;;;;;;;;39.50;35.25;;;;;4.12;72.21;99245.94;5046150;28;8874;-80
2023/01/28 04:14:49;;;;;;;;;52.75;45.50;;;;;3.97;72.15;99246.47;5011577;28;9007;-80
2023/01/28 04:17:26;;;;;;;;;45.25;38.00;;;;;3.94;72.07;99255.03;5027823;28;8873;-78
2023/01/28 04:19:58;;;;;;;;;46.25;40.50;;;;;3.51;74.37;99262.69;5027921;28;8946;-77
2023/01/28 04:22:27;;;;;;;;;38.50;35.50;;;;;3.46;74.45;99261.72;5027896;28;8939;-75
2023/01/28 04:24:56;;;;;;;;;26.50;23.25;;;;;3.27;75.15;99269.84;5031800;28;8860;-78
2023/01/28 04:27:25;;;;;;;;;44.25;42.50;;;;;3.89;73.48;99264.38;5031479;28;8851;-78
2023/01/28 04:29:55;;;;;;;;;35.50;28.75;;;;;3.75;73.61;99265.81;5047800;28;8824;-78
2023/01/28 04:32:42;;;;;;;;;46.75;37.50;;;;;3.94;73.01;99267.94;5030867;28;8847;-81
2023/01/28 04:35:27;;;;;;;;;40.75;39.25;;;;;3.83;73.76;99277.16;5007887;28;8883;-78
2023/01/28 04:38:04;;;;;;;;;40.50;33.25;;;;;3.85;72.50;99284.06;5024492;28;8847;-77
2023/01/28 04:40:51;;;;;;;;;34.75;30.75;;;;;3.65;73.28;99280.19;5024237;28;8855;-78
2023/01/28 04:43:29;;;;;;;;;37.00;36.00;;;;;3.59;74.09;99278.34;5008147;28;8891;-80
2023/01/28 04:46:18;;;;;;;;;38.50;37.00;;;;;3.34;75.46;99287.19;5056680;28;8910;-80
2023/01/28 04:49:03;;;;;;;;;44.00;36.50;;;;;3.64;74.22;99286.19;5054731;28;8849;-80
2023/01/28 04:51:50;;;;;;;;;42.75;36.00;;;;;3.78;73.57;99284.78;5047131;28;8953;-78
2023/01/28 04:54:37;;;;;;;;;41.25;37.25;;;;;3.77;73.44;99283.03;5047147;28;8962;-80
2023/01/28 04:57:07;;;;;;;;;43.50;37.75;;;;;3.42;74.91;99290.84;5014259;28;8842;-79
2023/01/28 04:59:36;;;;;;;;;46.50;44.50;;;;;3.59;74.19;99290.34;5054720;28;9644;-79
2023/01/28 05:02:06;;;;;;;;;37.50;35.75;;;;;3.59;74.77;99290.34;5066820;28;8863;-78
2023/01/28 05:04:35;;;;;;;;;39.50;37.25;;;;;3.23;75.50;99301.50;5066918;28;8952;-80
2023/01/28 05:07:05;;;;;;;;;41.50;39.00;;;;;3.49;75.05;99297.00;5004231;28;8860;-81
2023/01/28 05:09:35;;;;;;;;;41.00;39.25;;;;;3.63;73.77;99297.31;5087210;28;8878;-79
2023/01/28 05:12:05;;;;;;;;;57.50;46.50;;;;;3.49;74.74;99297.00;5087157;28;8853;-80
2023/01/28 05:14:36;;;;;;;;;55.25;44.75;;;;;3.40;75.18;99297.63;5070357;28;8865;-81
2023/01/28 05:17:07;;;;;;;;;48.75;42.00;;;;;3.56;74.71;99300.59;5070194;28;8872;-80
2023/01/28 05:19:36;;;;;;;;;48.00;36.75;;;;;3.17;76.37;99303.94;5070274;28;8865;-78
2023/01/28 05:22:12;;;;;;;;;39.50;34.00;;;;;3.02;76.82;99307.88;5059864;27;8917;-76
2023/01/28 05:24:44;;;;;;;;;46.50;40.75;;;;;2.89;77.53;99310.94;5093466;27;8857;-79
2023/01/28 05:27:14;;;;;;;;;51.00;45.00;;;;;2.92;77.60;99309.34;5044507;27;8865;-80
2023/01/28 05:29:43;;;;;;;;;37.50;33.25;;;;;2.77;77.87;99306.34;5076863;27;8949;-78
2023/01/28 05:32:12;;;;;;;;;37.25;36.00;;;;;2.70;78.21;99313.06;5110740;27;8942;-81
2023/01/28 05:34:41;;;;;;;;;38.25;34.50;;;;;2.94;77.84;99309.38;5110581;27;8865;-80
2023/01/28 05:37:15;;;;;;;;;46.00;40.50;;;;;2.79;77.81;99322.72;5074660;28;8881;-77
2023/01/28 05:39:44;;;;;;;;;42.50;37.25;;;;;3.06;77.47;99309.72;5108258;28;9602;-79
2023/01/28 05:42:14;;;;;;;;;46.75;38.25;;;;;2.75;78.35;99309.72;5016924;28;8973;-79
2023/01/28 05:44:47;;;;;;;;;28.25;22.25;;;;;2.82;78.26;99317.66;5050007;28;8985;-77
2023/01/28 05:47:42;;;;;;;;;48.50;37.75;;;;;2.80;78.44;99316.75;5046390;28;8866;-78
2023/01/28 05:50:31;;;;;;;;;46.25;39.00;;;;;2.72;78.49;99319.13;5046580;28;8876;-79
2023/01/28 05:53:22;;;;;;;;;40.75;36.50;;;;;2.82;78.52;99321.94;5046306;28;8990;-79
2023/01/28 05:55:53;;;;;;;;;44.50;38.50;;;;;2.97;78.02;99334.34;5029805;28;8878;-79
2023/01/28 05:58:22;;;;;;;;;40.25;35.50;;;;;2.85;78.18;99329.72;5030013;28;8846;-77
2023/01/28 06:00:55;;;;;;;;;31.00;28.00;;;;;2.79;78.79;99333.00;4981416;28;8967;-78
2023/01/28 06:03:32;;;;;;;;;41.00;34.75;;;;;2.52;79.83;99341.72;5013098;28;8870;-79
2023/01/28 06:06:02;;;;;;;;;55.50;45.50;;;;;2.67;78.88;99346.44;5013242;28;9044;-78
2023/01/28 06:08:33;;;;;;;;;51.75;45.00;;;;;2.87;78.36;99353.81;5013277;28;9854;-78
2023/01/28 06:11:03;;;;;;;;;41.50;33.75;;;;;2.65;79.42;99354.94;5029212;28;8860;-79
2023/01/28 06:13:34;;;;;;;;;49.50;43.25;;;;;2.60;79.40;99361.66;5040431;28;8846;-79
2023/01/28 06:16:22;;;;;;;;;53.50;44.75;;;;;2.51;79.76;99359.69;5065982;28;8951;-78
2023/01/28 06:19:09;;;;;;;;;48.00;38.00;;;;;2.74;79.24;99365.47;5066108;28;8850;-77
2023/01/28 06:21:38;;;;;;;;;35.75;30.00;;;;;2.56;80.10;99370.13;5066104;28;8854;-78
2023/01/28 06:24:09;;;;;;;;;48.00;41.50;;;;;2.40;80.92;99366.22;5055844;28;8839;-78
2023/01/28 06:26:38;;;;;;;;;47.50;45.25;;;;;2.59;80.24;99375.34;5104032;28;8843;-78
2023/01/28 06:29:08;;;;;;;;;64.25;48.00;;;;;2.52;80.39;99379.47;5103951;28;8828;-77
2023/01/28 06:31:36;;;;;;;;;51.50;42.00;;;;;2.71;79.63;99383.44;5096738;28;8869;-78
2023/01/28 06:34:05;;;;;;;;;51.50;44.50;;;;;2.60;80.07;99388.28;5037071;28;8870;-79
2023/01/28 06:36:36;;;;;;;;;50.00;44.00;;;;;2.43;80.75;99390.34;5071606;28;8982;-77
2023/01/28 06:39:05;;;;;;;;;63.50;50.25;;;;;2.60;80.07;99384.84;5070426;28;8851;-77
2023/01/28 06:41:35;;;;;;;;;49.50;47.00;;;;;2.60;80.32;99390.84;5088083;28;8913;-78
2023/01/28 06:44:05;;;;;;;;;46.75;43.75;;;;;2.76;79.41;99392.16;5070973;28;8839;-79
2023/01/28 06:46:34;;;;;;;;;50.25;45.50;;;;;2.81;79.20;99397.44;5070727;28;8863;-79
2023/01/28 06:49:03;;;;;;;;;54.00;44.50;;;;;2.90;78.97;99390.84;5089743;28;8851;-77
2023/01/28 06:51:32;;;;;;;;;46.50;42.50;;;;;3.11;77.70;99400.84;5090400;28;8829;-78
2023/01/28 06:54:01;;;;;;;;;58.00;48.00;;;;;3.03;78.14;99404.06;5107034;28;8956;-78
2023/01/28 06:56:29;;;;;;;;;53.75;48.50;;;;;2.82;79.33;99409.50;5090514;28;8871;-78
2023/01/28 06:58:59;;;;;;;;;55.75;43.50;;;;;2.67;79.68;99408.22;5107115;28;9757;-80
2023/01/28 07:01:28;;;;;;;;;42.25;40.50;;;;;2.71;79.21;99415.19;5108756;27;8895;-78
2023/01/28 07:03:57;;;;;;;;;59.25;50.00;;;;;2.62;79.84;99414.94;5125761;27;8837;-79
2023/01/28 07:06:26;;;;;;;;;60.50;48.75;;;;;2.77;79.27;99414.50;5108948;27;8865;-78
2023/01/28 07:08:55;;;;;;;;;57.00;47.75;;;;;2.52;80.48;99418.06;5125832;27;9633;-79
2023/01/28 07:11:23;;;;;;;;;52.25;45.00;;;;;2.74;79.66;99422.13;5106413;28;10073;-78
2023/01/28 07:13:52;;;;;;;;;50.50;45.25;;;;;2.82;78.76;99423.22;5106225;28;8969;-80
2023/01/28 07:16:22;;;;;;;;;50.00;43.25;;;;;2.79;79.41;99420.56;5105519;28;9045;-77
2023/01/28 07:18:51;;;;;;;;;60.00;49.50;;;;;2.88;79.44;99419.97;5088767;28;8871;-78
2023/01/28 07:21:20;;;;;;;;;62.75;48.75;;;;;3.05;78.56;99429.03;5105173;28;8984;-78
2023/01/28 07:23:49;;;;;;;;;55.25;43.75;;;;;3.01;78.85;99426.34;5105212;28;8851;-77
2023/01/28 07:26:18;;;;;;;;;51.25;45.00;;;;;2.81;78.82;99439.50;5123774;27;8865;-78
2023/01/28 07:28:47;;;;;;;;;57.50;48.00;;;;;2.92;78.87;99439.81;5095736;27;8841;-78
2023/01/28 07:31:16;;;;;;;;;50.25;39.50;;;;;2.98;78.62;99442.56;5130195;27;8884;-79
2023/01/28 07:33:46;;;;;;;;;58.25;48.75;;;;;3.09;77.71;99440.28;5129921;27;8830;-78
2023/01/28 07:36:15;;;;;;;;;56.00;48.25;;;;;2.64;79.56;99444.16;5130728;27;8874;-79
2023/01/28 07:38:44;;;;;;;;;58.25;46.25;;;;;2.77;79.25;99445.41;5078891;27;8835;-78
2023/01/28 07:41:12;;;;;;;;;58.00;49.00;;;;;2.80;79.37;99448.06;5122707;27;8874;-78
2023/01/28 07:43:42;;;;;;;;;52.50;47.50;;;;;2.89;78.99;99452.59;5076298;28;9593;-78
2023/01/28 07:46:12;;;;;;;;;56.25;49.00;;;;;2.98;78.49;99452.00;5110096;28;8884;-77
2023/01/28 07:48:41;;;;;;;;;61.00;52.25;;;;;3.08;78.66;99456.56;5110217;28;8868;-77
2023/01/28 07:51:12;;;;;;;;;47.00;39.75;;;;;3.13;78.70;99460.16;5110001;28;9074;-78
2023/01/28 07:53:41;;;;;;;;;71.50;53.75;;;;;3.22;78.09;99455.25;5110028;27;8937;-78
2023/01/28 07:56:10;;;;;;;;;61.75;45.00;;;;;3.04;78.96;99468.47;5092840;28;8871;-79
2023/01/28 07:58:39;;;;;;;;;61.25;47.75;;;;;3.06;78.69;99460.78;5092516;28;8844;-78
2023/01/28 08:01:07;;;;;;;;;53.00;46.25;;;;;2.93;78.75;99467.31;5092860;28;8875;-78
2023/01/28 08:03:36;;;;;;;;;60.25;47.00;;;;;3.22;78.58;99468.13;5092808;28;8841;-78
2023/01/28 08:06:06;;;;;;;;;61.25;49.00;;;;;3.24;78.32;99469.03;5109666;28;8837;-79
2023/01/28 08:08:36;;;;;;;;;61.50;51.75;;;;;3.00;78.80;99469.22;5109361;28;8884;-79
2023/01/28 08:11:08;;;;;;;;;62.50;53.00;;;;;2.84;79.51;99474.78;5092678;28;8861;-78
2023/01/28 08:13:37;;;;;;;;;54.50;45.25;;;;;2.80;79.84;99475.50;5109969;28;8902;-80
2023/01/28 08:16:06;;;;;;;;;64.25;50.50;;;;;2.89;79.46;99474.09;5058522;28;8872;-78
2023/01/28 08:18:35;;;;;;;;;64.25;51.50;;;;;2.93;79.94;99472.47;5092571;28;8871;-79
2023/01/28 08:21:05;;;;;;;;;65.50;55.25;;;;;2.94;79.70;99476.78;5111299;28;8865;-79
2023/01/28 08:23:34;;;;;;;;;61.50;50.25;;;;;3.11;79.15;99477.25;5111784;28;8837;-79
2023/01/28 08:26:04;;;;;;;;;63.50;49.50;;;;;3.23;79.07;99467.31;5110447;28;9610;-80
2023/01/28 08:28:33;;;;;;;;;49.50;45.25;;;;;3.10;78.97;99478.09;5111179;28;8837;-78
2023/01/28 08:31:03;;;;;;;;;50.00;45.00;;;;;3.22;79.06;99481.00;5110966;28;8914;-78
2023/01/28 08:33:32;;;;;;;;;51.75;39.75;;;;;3.10;79.14;99478.97;5058032;27;8957;-76
2023/01/28 08:36:03;;;;;;;;;58.50;45.75;;;;;3.26;78.70;99476.81;5108990;28;9016;-79
2023/01/28 08:38:32;;;;;;;;;61.75;48.25;;;;;3.14;78.77;99477.38;5057736;28;8833;-81
2023/01/28 08:41:00;;;;;;;;;60.50;50.25;;;;;3.16;78.85;99488.59;5041486;28;8841;-81
2023/01/28 08:43:31;;;;;;;;;62.00;49.50;;;;;3.06;79.45;99486.56;5109395;28;8848;-80
2023/01/28 08:45:59;;;;;;;;;55.75;48.25;;;;;3.13;78.75;99485.91;5107590;28;8987;-79
2023/01/28 08:48:29;;;;;;;;;55.75;46.00;;;;;2.86;79.72;99492.03;5107480;28;8859;-79
2023/01/28 08:50:59;;;;;;;;;56.00;45.25;;;;;3.05;78.85;99485.69;5073698;28;9697;-78
2023/01/28 08:53:28;;;;;;;;;63.25;52.50;;;;;3.15;78.52;99494.56;5090310;28;8823;-78
2023/01/28 08:55:56;;;;;;;;;57.00;49.50;;;;;2.86;79.12;99492.03;5073937;28;9694;-79
2023/01/28 08:58:25;;;;;;;;;57.50;48.00;;;;;2.97;79.35;99497.50;5090852;28;8874;-78
2023/01/28 09:00:55;;;;;;;;;47.75;43.00;;;;;3.25;78.15;99503.41;5108119;28;8901;-79
2023/01/28 09:03:24;;;;;;;;;60.50;51.50;;;;;2.91;79.47;99499.88;5074132;28;8866;-80
2023/01/28 09:05:53;;;;;;;;;60.25;49.00;;;;;3.08;79.10;99496.09;5090902;28;8864;-80
2023/01/28 09:08:22;;;;;;;;;72.75;57.25;;;;;3.09;79.26;99496.97;5095890;28;10034;-79
2023/01/28 09:10:55;;;;;;;;;47.75;39.25;;;;;3.18;78.38;99501.50;5088284;28;8942;-79
2023/01/28 09:13:24;;;;;;;;;69.75;51.50;;;;;3.23;78.46;99510.22;5039467;28;8865;-80
2023/01/28 09:15:53;;;;;;;;;68.50;54.25;;;;;3.12;79.65;99510.81;5038786;28;8927;-79
2023/01/28 09:18:24;;;;;;;;;55.00;49.00;;;;;2.88;80.43;99508.38;5070836;28;8838;-80
2023/01/28 09:20:52;;;;;;;;;62.25;49.50;;;;;3.06;80.03;99507.16;5070707;28;8865;-81
2023/01/28 09:23:22;;;;;;;;;75.50;57.00;;;;;3.09;80.26;99508.13;5075093;28;8848;-80
2023/01/28 09:25:50;;;;;;;;;62.25;50.25;;;;;3.20;79.91;99512.75;5071914;28;8872;-80
2023/01/28 09:28:19;;;;;;;;;77.25;54.25;;;;;3.02;80.19;99513.94;5088320;28;8855;-79
2023/01/28 09:30:48;;;;;;;;;71.75;53.25;;;;;3.29;79.68;99510.41;5088243;28;8843;-82
2023/01/28 09:33:17;;;;;;;;;55.75;41.75;;;;;3.57;79.06;99506.88;5054146;28;8906;-79
2023/01/28 09:35:47;;;;;;;;;66.75;55.50;;;;;3.35;79.68;99510.59;5053628;28;8844;-81
2023/01/28 09:38:16;;;;;;;;;60.75;50.50;;;;;3.29;79.56;99508.72;5070947;28;8874;-80
2023/01/28 09:40:45;;;;;;;;;75.25;54.50;;;;;3.42;79.79;99503.88;5087627;28;8889;-80
2023/01/28 09:43:44;;;;;;;;;61.75;52.00;;;;;3.53;79.11;99509.34;5087816;28;8950;-82
2023/01/28 09:46:17;;;;;;;;;64.00;51.75;;;;;3.46;79.74;99504.03;4974138;28;8889;-80
2023/01/28 09:48:51;;;;;;;;;62.00;50.00;;;;;3.32;79.68;99508.78;4989890;28;8888;-79
2023/01/28 09:51:32;;;;;;;;;74.75;60.25;;;;;3.04;80.11;99506.25;4990082;28;8890;-80
2023/01/28 09:54:06;;;;;;;;;59.25;49.50;;;;;3.01;80.79;99511.34;4997524;28;8950;-81
2023/01/28 09:56:39;;;;;;;;;68.00;52.00;;;;;2.90;81.05;99511.00;5006283;28;8858;-81
2023/01/28 09:59:18;;;;;;;;;73.50;52.00;;;;;3.28;80.37;99512.09;5006544;28;9804;-81
2023/01/28 10:01:54;;;;;;;;;49.50;43.25;;;;;2.93;81.45;99513.69;5006639;28;8862;-79
2023/01/28 10:04:40;;;;;;;;;69.00;55.00;;;;;2.85;81.57;99515.16;5006732;28;8858;-79
2023/01/28 10:07:36;;;;;;;;;67.75;52.25;;;;;2.82;81.52;99510.78;4990147;28;8992;-82
2023/01/28 10:10:13;;;;;;;;;60.25;52.25;;;;;2.92;81.00;99509.34;4913588;29;8896;-81
2023/01/28 10:13:04;;;;;;;;;62.75;50.25;;;;;3.08;81.55;99510.66;4931770;29;8970;-81
2023/01/28 10:15:50;;;;;;;;;61.50;50.25;;;;;3.13;79.99;99515.13;4930383;29;8919;-81
2023/01/28 10:18:29;;;;;;;;;78.25;61.50;;;;;2.88;81.43;99512.66;4913807;29;8896;-80
2023/01/28 10:21:05;;;;;;;;;79.25;62.00;;;;;2.88;82.12;99513.53;4897621;29;8871;-80
2023/01/28 10:23:45;;;;;;;;;71.75;57.25;;;;;2.97;81.10;99512.03;4964744;28;8882;-81
2023/01/28 10:26:23;;;;;;;;;67.75;55.75;;;;;3.07;80.34;99506.34;5006207;28;8868;-79
2023/01/28 10:28:57;;;;;;;;;56.25;47.25;;;;;3.34;79.68;99518.28;4967089;28;8983;-80
2023/01/28 10:31:32;;;;;;;;;65.00;53.75;;;;;3.04;79.97;99516.56;4950775;28;8943;-80
2023/01/28 10:34:03;;;;;;;;;66.50;56.50;;;;;3.04;80.34;99520.00;4950335;28;9769;-82
2023/01/28 10:36:32;;;;;;;;;74.75;56.75;;;;;3.34;80.03;99516.56;4950567;28;9015;-80
2023/01/28 10:39:03;;;;;;;;;66.00;48.75;;;;;2.95;80.95;99524.00;4952259;28;8938;-80
2023/01/28 10:41:32;;;;;;;;;66.33;50.33;;;;;3.23;80.46;99513.69;4967195;28;9738;-81
2023/01/28 10:44:02;;;;;;;;;68.50;52.50;;;;;2.93;80.96;99513.69;4935052;28;9646;-81
2023/01/28 10:46:35;;;;;;;;;73.00;58.00;;;;;2.80;81.73;99515.03;4986928;28;8861;-83
2023/01/28 10:49:13;;;;;;;;;71.00;56.75;;;;;2.77;81.93;99520.06;5013049;28;9583;-80
2023/01/28 10:51:44;;;;;;;;;66.25;53.75;;;;;2.83;81.62;99515.09;4980456;28;8966;-80
2023/01/28 10:54:22;;;;;;;;;69.75;51.75;;;;;3.21;80.18;99514.47;5033961;28;9010;-81
2023/01/28 10:56:55;;;;;;;;;77.50;58.50;;;;;3.08;80.46;99511.56;5032950;28;8847;-80
2023/01/28 10:59:27;;;;;;;;;64.75;52.50;;;;;2.75;81.43;99519.16;5065727;28;8963;-81
2023/01/28 11:01:59;;;;;;;;;46.00;38.00;;;;;2.71;81.65;99515.59;5052496;28;8910;-82
2023/01/28 11:04:31;;;;;;;;;71.50;57.50;;;;;2.79;81.80;99517.53;5052402;28;8887;-80
2023/01/28 11:07:01;;;;;;;;;66.50;51.00;;;;;2.82;81.67;99512.50;5098609;27;10150;-81
2023/01/28 11:09:34;;;;;;;;;74.50;55.00;;;;;2.94;81.12;99515.41;5143942;27;8846;-80
2023/01/28 11:12:12;;;;;;;;;61.25;50.50;;;;;2.71;82.20;99515.59;5114717;27;8860;-80
2023/01/28 11:14:50;;;;;;;;;70.00;54.50;;;;;2.73;81.85;99521.66;5063260;27;8972;-80
2023/01/28 11:17:23;;;;;;;;;53.50;47.50;;;;;2.67;82.48;99513.78;5114813;27;8833;-82
2023/01/28 11:19:53;;;;;;;;;70.50;49.00;;;;;2.62;82.72;99510.16;5114766;27;8853;-80
2023/01/28 11:22:32;;;;;;;;;69.75;57.00;;;;;2.82;81.94;99517.66;5097235;27;8849;-80
2023/01/28 11:25:06;;;;;;;;;72.50;60.25;;;;;2.69;81.80;99509.53;5132529;27;8857;-82
2023/01/28 11:27:35;;;;;;;;;72.75;58.25;;;;;2.65;82.35;99515.44;5114419;27;8905;-81
2023/01/28 11:30:04;;;;;;;;;71.50;58.00;;;;;2.75;81.79;99507.97;5114611;27;8837;-80
2023/01/28 11:32:33;;;;;;;;;75.75;57.00;;;;;2.82;81.46;99505.63;5097928;27;8866;-79
2023/01/28 11:35:02;;;;;;;;;78.75;59.75;;;;;2.80;81.87;99508.97;5097319;27;8862;-80
2023/01/28 11:37:31;;;;;;;;;77.25;57.50;;;;;2.93;81.20;99517.13;5114184;27;8853;-81
2023/01/28 11:40:20;;;;;;;;;77.25;60.75;;;;;2.97;81.12;99515.53;5108758;27;8851;-80
2023/01/28 11:42:51;;;;;;;;;76.00;60.25;;;;;2.90;80.83;99508.44;5134912;27;8828;-82
2023/01/28 11:45:28;;;;;;;;;67.50;57.00;;;;;2.63;81.74;99513.66;5134607;27;8858;-81
2023/01/28 11:48:20;;;;;;;;;64.25;51.50;;;;;2.64;81.94;99507.66;5117323;27;9600;-78
2023/01/28 11:50:57;;;;;;;;;72.50;55.50;;;;;2.90;81.47;99506.72;5117590;27;9518;-81
2023/01/28 11:53:47;;;;;;;;;67.00;57.50;;;;;2.96;80.54;99505.16;5153398;27;8862;-79
2023/01/28 11:56:33;;;;;;;;;77.75;60.75;;;;;2.87;80.90;99505.75;5134524;27;8824;-81
2023/01/28 11:59:35;;;;;;;;;66.75;52.50;;;;;2.88;80.70;99513.53;5134781;27;9572;-81
2023/01/28 12:02:18;;;;;;;;;48.00;37.50;;;;;2.62;81.70;99512.75;5115083;27;8853;-80
2023/01/28 12:05:02;;;;;;;;;74.00;61.50;;;;;2.70;81.56;99518.13;5114675;27;8888;-81
2023/01/28 12:07:45;;;;;;;;;67.75;57.50;;;;;2.70;81.50;99516.44;5114493;27;8939;-81
2023/01/28 12:10:22;;;;;;;;;84.00;63.75;;;;;2.78;81.08;99513.19;5114456;27;8849;-80
2023/01/28 12:13:07;;;;;;;;;83.00;63.25;;;;;2.89;80.79;99520.44;5130956;27;9804;-80
2023/01/28 12:16:05;;;;;;;;;75.25;61.50;;;;;3.24;79.93;99512.84;5132401;27;8846;-80
2023/01/28 12:18:54;;;;;;;;;74.50;57.00;;;;;3.00;80.39;99507.88;5072173;28;8864;-81
2023/01/28 12:21:34;;;;;;;;;76.25;60.00;;;;;2.93;80.29;99511.97;5090386;28;8882;-83
2023/01/28 12:24:17;;;;;;;;;73.50;55.75;;;;;2.71;80.83;99513.03;5056430;28;8979;-81
2023/01/28 12:26:52;;;;;;;;;75.75;60.75;;;;;2.95;80.15;99512.03;5068281;28;9758;-80
2023/01/28 12:29:31;;;;;;;;;75.50;62.25;;;;;2.99;80.52;99507.84;5067361;28;8851;-83
2023/01/28 12:32:27;;;;;;;;;71.75;58.75;;;;;3.11;80.15;99519.34;5069261;28;8872;-79